YZR7451 ZSNJ-ZYHB
Flight info
| Callsign | YZR7451 |
|---|---|
| Flight time | 2h 16m |
| Altitude | 31100 |
| Route | OF W178 RUXEL GURIL MABEB XDX URBAD W172 IGDEG W173 NIXEP W8 DOBGA W202 UDETI A588 NULRA W206 MAGBI W656 ISLUK W629 LARUN |
| Aircraft | B744/H-SDE2E3FGILRWXY/LB2 |
Departure
| Time | 2026-04-20 00:54 |
|---|---|
| Airport | Nanjing Lukou International Airport (ZSNJ) |
Arrival
| Time | 2026-04-20 03:10 |
|---|---|
| Airport | Harbin Taiping International Airport (ZYHB) |
| Time | Latitude | Longitude | Altitude | Speed | Heading |
|---|---|---|---|---|---|
| 2026-04-20 00:19 | 31.74254 | 118.87054 | 60 ft | 0 kts | 148° |
| 2026-04-20 00:39 | 31.74262 | 118.87048 | 60 ft | 2 kts | 148° |
| 2026-04-20 00:39 | 31.74275 | 118.87038 | 60 ft | 2 kts | 148° |
| 2026-04-20 00:40 | 31.74288 | 118.87029 | 60 ft | 2 kts | 148° |
| 2026-04-20 00:40 | 31.74300 | 118.87019 | 60 ft | 2 kts | 149° |
| 2026-04-20 00:40 | 31.74314 | 118.87013 | 60 ft | 2 kts | 176° |
| 2026-04-20 00:40 | 31.74329 | 118.87015 | 60 ft | 2 kts | 198° |
| 2026-04-20 00:41 | 31.74343 | 118.87023 | 60 ft | 2 kts | 220° |
| 2026-04-20 00:41 | 31.74351 | 118.87033 | 60 ft | 0 kts | 238° |
| 2026-04-20 00:41 | 31.74354 | 118.87038 | 60 ft | 0 kts | 239° |
| 2026-04-20 00:44 | 31.74345 | 118.87022 | 60 ft | 5 kts | 239° |
| 2026-04-20 00:45 | 31.74324 | 118.86981 | 60 ft | 6 kts | 239° |
| 2026-04-20 00:45 | 31.74321 | 118.86938 | 60 ft | 5 kts | 302° |
| 2026-04-20 00:45 | 31.74351 | 118.86906 | 60 ft | 5 kts | 304° |
| 2026-04-20 00:45 | 31.74357 | 118.86861 | 60 ft | 5 kts | 255° |
| 2026-04-20 00:46 | 31.74337 | 118.86816 | 60 ft | 6 kts | 238° |
| 2026-04-20 00:46 | 31.74311 | 118.86768 | 60 ft | 7 kts | 238° |
| 2026-04-20 00:46 | 31.74282 | 118.86713 | 60 ft | 8 kts | 238° |
| 2026-04-20 00:46 | 31.74252 | 118.86655 | 60 ft | 8 kts | 238° |
| 2026-04-20 00:47 | 31.74218 | 118.86591 | 60 ft | 9 kts | 238° |
| 2026-04-20 00:47 | 31.74182 | 118.86524 | 60 ft | 9 kts | 238° |
| 2026-04-20 00:47 | 31.74144 | 118.86453 | 60 ft | 10 kts | 238° |
| 2026-04-20 00:47 | 31.74104 | 118.86378 | 60 ft | 11 kts | 238° |
| 2026-04-20 00:48 | 31.74062 | 118.86300 | 60 ft | 11 kts | 238° |
| 2026-04-20 00:48 | 31.74017 | 118.86217 | 60 ft | 12 kts | 238° |
| 2026-04-20 00:48 | 31.73971 | 118.86131 | 60 ft | 12 kts | 238° |
| 2026-04-20 00:48 | 31.73923 | 118.86041 | 60 ft | 13 kts | 238° |
| 2026-04-20 00:49 | 31.73873 | 118.85947 | 60 ft | 13 kts | 238° |
| 2026-04-20 00:49 | 31.73821 | 118.85850 | 60 ft | 14 kts | 238° |
| 2026-04-20 00:49 | 31.73766 | 118.85748 | 60 ft | 14 kts | 238° |
| 2026-04-20 00:49 | 31.73711 | 118.85644 | 60 ft | 15 kts | 238° |
| 2026-04-20 00:50 | 31.73653 | 118.85536 | 60 ft | 15 kts | 238° |
| 2026-04-20 00:50 | 31.73593 | 118.85423 | 60 ft | 16 kts | 238° |
| 2026-04-20 00:50 | 31.73531 | 118.85307 | 60 ft | 17 kts | 238° |
| 2026-04-20 00:50 | 31.73467 | 118.85189 | 60 ft | 17 kts | 238° |
| 2026-04-20 00:51 | 31.73401 | 118.85065 | 60 ft | 18 kts | 238° |
| 2026-04-20 00:51 | 31.73333 | 118.84937 | 60 ft | 18 kts | 238° |
| 2026-04-20 00:51 | 31.73264 | 118.84807 | 60 ft | 19 kts | 238° |
| 2026-04-20 00:51 | 31.73230 | 118.84733 | 60 ft | 7 kts | 269° |
| 2026-04-20 00:52 | 31.73255 | 118.84681 | 60 ft | 7 kts | 319° |
| 2026-04-20 00:52 | 31.73301 | 118.84646 | 60 ft | 8 kts | 328° |
| 2026-04-20 00:52 | 31.73351 | 118.84619 | 60 ft | 7 kts | 7° |
| 2026-04-20 00:52 | 31.73394 | 118.84656 | 60 ft | 8 kts | 58° |
| 2026-04-20 00:53 | 31.73407 | 118.84682 | 60 ft | 0 kts | 58° |
| 2026-04-20 00:53 | 31.73475 | 118.84807 | 60 ft | 46 kts | 58° |
| 2026-04-20 00:53 | 31.73769 | 118.85358 | 60 ft | 112 kts | 57° |
| 2026-04-20 00:54 | 31.74299 | 118.86345 | 61 ft | 169 kts | 57° |
| 2026-04-20 00:54 | 31.74974 | 118.87629 | 246 ft | 199 kts | 56° |
| 2026-04-20 00:54 | 31.75736 | 118.89092 | 762 ft | 213 kts | 57° |
| 2026-04-20 00:54 | 31.76509 | 118.90583 | 1521 ft | 219 kts | 54° |
| 2026-04-20 00:55 | 31.77289 | 118.92056 | 2314 ft | 215 kts | 55° |
| 2026-04-20 00:55 | 31.78100 | 118.93549 | 2928 ft | 220 kts | 55° |
| 2026-04-20 00:55 | 31.78925 | 118.95073 | 3504 ft | 227 kts | 56° |
| 2026-04-20 00:55 | 31.79778 | 118.96659 | 4036 ft | 236 kts | 56° |
| 2026-04-20 00:56 | 31.80685 | 118.98357 | 4440 ft | 251 kts | 56° |
| 2026-04-20 00:56 | 31.81634 | 119.00122 | 4777 ft | 262 kts | 56° |
| 2026-04-20 00:56 | 31.82615 | 119.01965 | 5251 ft | 267 kts | 56° |
| 2026-04-20 00:56 | 31.83612 | 119.03833 | 5699 ft | 274 kts | 55° |
| 2026-04-20 00:57 | 31.84629 | 119.05740 | 6045 ft | 283 kts | 56° |
| 2026-04-20 00:57 | 31.85760 | 119.07698 | 6390 ft | 290 kts | 45° |
| 2026-04-20 00:57 | 31.87301 | 119.09194 | 6671 ft | 290 kts | 25° |
| 2026-04-20 00:57 | 31.89196 | 119.10009 | 6825 ft | 286 kts | 4° |
| 2026-04-20 00:58 | 31.91147 | 119.10018 | 6871 ft | 279 kts | 344° |
| 2026-04-20 00:58 | 31.92942 | 119.09242 | 6887 ft | 272 kts | 324° |
| 2026-04-20 00:58 | 31.94338 | 119.07797 | 6888 ft | 266 kts | 304° |
| 2026-04-20 00:58 | 31.95162 | 119.05886 | 6887 ft | 262 kts | 283° |
| 2026-04-20 00:59 | 31.95315 | 119.03770 | 6901 ft | 262 kts | 262° |
| 2026-04-20 00:59 | 31.94774 | 119.01728 | 6923 ft | 265 kts | 242° |
| 2026-04-20 00:59 | 31.93660 | 118.99967 | 6933 ft | 268 kts | 233° |
| 2026-04-20 00:59 | 31.92511 | 118.98226 | 6937 ft | 268 kts | 236° |
| 2026-04-20 01:00 | 31.91410 | 118.96489 | 6935 ft | 267 kts | 236° |
| 2026-04-20 01:00 | 31.90287 | 118.94719 | 6856 ft | 276 kts | 236° |
| 2026-04-20 01:00 | 31.89115 | 118.92869 | 7170 ft | 283 kts | 236° |
| 2026-04-20 01:00 | 31.87947 | 118.91022 | 7717 ft | 285 kts | 236° |
| 2026-04-20 01:01 | 31.86766 | 118.89153 | 8287 ft | 284 kts | 236° |
| 2026-04-20 01:01 | 31.85715 | 118.87182 | 8736 ft | 285 kts | 251° |
| 2026-04-20 01:01 | 31.85282 | 118.84943 | 9244 ft | 281 kts | 270° |
| 2026-04-20 01:01 | 31.85545 | 118.82687 | 9745 ft | 281 kts | 289° |
| 2026-04-20 01:02 | 31.86461 | 118.80680 | 10212 ft | 284 kts | 307° |
| 2026-04-20 01:02 | 31.87961 | 118.79127 | 10710 ft | 291 kts | 326° |
| 2026-04-20 01:02 | 31.89842 | 118.78239 | 11091 ft | 302 kts | 344° |
| 2026-04-20 01:02 | 31.92007 | 118.78099 | 11392 ft | 317 kts | 2° |
| 2026-04-20 01:03 | 31.94186 | 118.78760 | 11641 ft | 333 kts | 18° |
| 2026-04-20 01:03 | 31.96350 | 118.79840 | 11941 ft | 339 kts | 18° |
| 2026-04-20 01:03 | 31.98565 | 118.80868 | 12321 ft | 341 kts | 15° |
| 2026-04-20 01:03 | 32.00864 | 118.81522 | 12642 ft | 336 kts | 358° |
| 2026-04-20 01:04 | 32.03177 | 118.81356 | 12980 ft | 329 kts | 341° |
| 2026-04-20 01:04 | 32.05257 | 118.80405 | 13360 ft | 320 kts | 324° |
| 2026-04-20 01:04 | 32.07223 | 118.79153 | 13711 ft | 325 kts | 333° |
| 2026-04-20 01:04 | 32.09367 | 118.78223 | 14139 ft | 326 kts | 335° |
| 2026-04-20 01:05 | 32.11472 | 118.77304 | 14538 ft | 326 kts | 333° |
| 2026-04-20 01:05 | 32.13598 | 118.76354 | 14908 ft | 328 kts | 334° |
| 2026-04-20 01:05 | 32.15761 | 118.75384 | 15256 ft | 329 kts | 333° |
| 2026-04-20 01:05 | 32.17897 | 118.74423 | 15573 ft | 333 kts | 337° |
| 2026-04-20 01:06 | 32.20158 | 118.73706 | 15929 ft | 337 kts | 339° |
| 2026-04-20 01:06 | 32.22438 | 118.72988 | 16236 ft | 339 kts | 338° |
| 2026-04-20 01:06 | 32.24708 | 118.72233 | 16575 ft | 340 kts | 338° |
| 2026-04-20 01:06 | 32.27011 | 118.71487 | 16916 ft | 342 kts | 338° |
| 2026-04-20 01:07 | 32.29292 | 118.70743 | 17262 ft | 341 kts | 338° |
| 2026-04-20 01:07 | 32.31580 | 118.69987 | 17570 ft | 343 kts | 338° |
| 2026-04-20 01:07 | 32.33890 | 118.69206 | 17871 ft | 344 kts | 337° |
| 2026-04-20 01:07 | 32.36203 | 118.68427 | 18174 ft | 346 kts | 338° |
| 2026-04-20 01:08 | 32.38526 | 118.67664 | 18480 ft | 348 kts | 337° |
| 2026-04-20 01:08 | 32.40850 | 118.66876 | 18764 ft | 349 kts | 337° |
| 2026-04-20 01:08 | 32.43193 | 118.66079 | 19039 ft | 351 kts | 337° |
| 2026-04-20 01:08 | 32.45549 | 118.65282 | 19328 ft | 353 kts | 337° |
| 2026-04-20 01:09 | 32.47915 | 118.64485 | 19595 ft | 355 kts | 337° |
| 2026-04-20 01:09 | 32.50291 | 118.63686 | 19839 ft | 358 kts | 337° |
| 2026-04-20 01:09 | 32.52692 | 118.62872 | 20131 ft | 359 kts | 337° |
| 2026-04-20 01:09 | 32.55142 | 118.62045 | 20424 ft | 368 kts | 337° |
| 2026-04-20 01:10 | 32.57597 | 118.61215 | 20945 ft | 371 kts | 337° |
| 2026-04-20 01:10 | 32.62599 | 118.59512 | 21938 ft | 379 kts | 336° |
| 2026-04-20 01:10 | 32.65166 | 118.58613 | 22388 ft | 384 kts | 338° |
| 2026-04-20 01:11 | 32.67804 | 118.57994 | 22804 ft | 397 kts | 350° |
| 2026-04-20 01:11 | 32.70620 | 118.58159 | 23285 ft | 409 kts | 3° |
| 2026-04-20 01:11 | 32.73435 | 118.58717 | 23797 ft | 411 kts | 2° |
| 2026-04-20 01:11 | 32.76253 | 118.59206 | 24307 ft | 411 kts | 1° |
| 2026-04-20 01:12 | 32.79097 | 118.59664 | 24861 ft | 411 kts | 2° |
| 2026-04-20 01:12 | 32.81913 | 118.60133 | 25415 ft | 411 kts | 1° |
| 2026-04-20 01:12 | 32.84748 | 118.60589 | 25831 ft | 414 kts | 1° |
| 2026-04-20 01:12 | 32.87653 | 118.61065 | 26270 ft | 417 kts | 1° |
| 2026-04-20 01:13 | 32.90511 | 118.61529 | 26706 ft | 418 kts | 1° |
| 2026-04-20 01:13 | 32.93418 | 118.62000 | 27166 ft | 419 kts | 1° |
| 2026-04-20 01:13 | 32.96317 | 118.62472 | 27562 ft | 422 kts | 1° |
| 2026-04-20 01:13 | 32.99225 | 118.62937 | 28012 ft | 423 kts | 1° |
| 2026-04-20 01:14 | 33.02136 | 118.63412 | 28416 ft | 423 kts | 0° |
| 2026-04-20 01:14 | 33.05044 | 118.63886 | 28886 ft | 424 kts | 1° |
| 2026-04-20 01:14 | 33.07997 | 118.64365 | 29282 ft | 423 kts | 0° |
| 2026-04-20 01:14 | 33.10924 | 118.64837 | 29729 ft | 423 kts | 1° |
| 2026-04-20 01:15 | 33.13909 | 118.65327 | 30109 ft | 424 kts | 0° |
| 2026-04-20 01:15 | 33.16893 | 118.65803 | 30440 ft | 426 kts | 0° |
| 2026-04-20 01:15 | 33.19874 | 118.66284 | 30748 ft | 427 kts | 0° |
| 2026-04-20 01:15 | 33.22837 | 118.66747 | 31020 ft | 431 kts | 0° |
| 2026-04-20 01:16 | 33.25850 | 118.67242 | 31226 ft | 437 kts | 0° |
| 2026-04-20 01:16 | 33.28891 | 118.67718 | 31359 ft | 445 kts | 360° |
| 2026-04-20 01:16 | 33.32062 | 118.68234 | 31384 ft | 456 kts | 0° |
| 2026-04-20 01:16 | 33.35262 | 118.68741 | 31394 ft | 466 kts | 360° |
| 2026-04-20 01:17 | 33.38617 | 118.69279 | 31383 ft | 478 kts | 0° |
| 2026-04-20 01:17 | 33.41961 | 118.69816 | 31359 ft | 486 kts | 0° |
| 2026-04-20 01:17 | 33.48848 | 118.70888 | 31306 ft | 493 kts | 0° |
| 2026-04-20 01:18 | 33.55638 | 118.71983 | 31270 ft | 488 kts | 0° |
| 2026-04-20 01:18 | 33.62474 | 118.73086 | 31262 ft | 489 kts | 0° |
| 2026-04-20 01:19 | 33.69253 | 118.74165 | 31268 ft | 490 kts | 0° |
| 2026-04-20 01:19 | 33.76053 | 118.75264 | 31273 ft | 489 kts | 0° |
| 2026-04-20 01:20 | 33.82896 | 118.76351 | 31284 ft | 489 kts | 360° |
| 2026-04-20 01:20 | 33.89716 | 118.77445 | 31276 ft | 488 kts | 360° |
| 2026-04-20 01:21 | 33.96532 | 118.78527 | 31275 ft | 488 kts | 360° |
| 2026-04-20 01:21 | 34.03346 | 118.79617 | 31277 ft | 490 kts | 359° |
| 2026-04-20 01:22 | 34.10235 | 118.80711 | 31285 ft | 491 kts | 359° |
| 2026-04-20 01:22 | 34.17027 | 118.81805 | 31277 ft | 490 kts | 359° |
| 2026-04-20 01:23 | 34.23770 | 118.82896 | 31285 ft | 490 kts | 359° |
| 2026-04-20 01:23 | 34.30601 | 118.84003 | 31280 ft | 491 kts | 359° |
| 2026-04-20 01:24 | 34.37432 | 118.85106 | 31274 ft | 490 kts | 359° |
| 2026-04-20 01:24 | 34.44284 | 118.86224 | 31272 ft | 491 kts | 359° |
| 2026-04-20 01:25 | 34.51144 | 118.87338 | 31270 ft | 493 kts | 359° |
| 2026-04-20 01:25 | 34.58020 | 118.88773 | 31238 ft | 504 kts | 10° |
| 2026-04-20 01:26 | 34.61284 | 118.90479 | 31232 ft | 517 kts | 22° |
| 2026-04-20 01:26 | 34.64274 | 118.92992 | 31241 ft | 528 kts | 34° |
| 2026-04-20 01:26 | 34.69792 | 118.98928 | 31277 ft | 525 kts | 32° |
| 2026-04-20 01:27 | 34.75378 | 119.04609 | 31260 ft | 519 kts | 32° |
| 2026-04-20 01:27 | 34.81018 | 119.10278 | 31267 ft | 522 kts | 32° |
| 2026-04-20 01:28 | 34.86702 | 119.15997 | 31268 ft | 525 kts | 32° |
| 2026-04-20 01:28 | 34.92355 | 119.21703 | 31256 ft | 524 kts | 32° |
| 2026-04-20 01:29 | 34.98061 | 119.27451 | 31252 ft | 526 kts | 32° |
| 2026-04-20 01:29 | 35.03719 | 119.33168 | 31257 ft | 525 kts | 32° |
| 2026-04-20 01:30 | 35.09383 | 119.38884 | 31254 ft | 528 kts | 32° |
| 2026-04-20 01:30 | 35.15047 | 119.44627 | 31259 ft | 527 kts | 32° |
| 2026-04-20 01:31 | 35.20696 | 119.50362 | 31253 ft | 528 kts | 32° |
| 2026-04-20 01:31 | 35.26346 | 119.56097 | 31261 ft | 530 kts | 32° |
| 2026-04-20 01:32 | 35.32066 | 119.61929 | 31249 ft | 528 kts | 31° |
| 2026-04-20 01:32 | 35.37731 | 119.67660 | 31235 ft | 531 kts | 32° |
| 2026-04-20 01:33 | 35.43388 | 119.73577 | 31251 ft | 533 kts | 34° |
| 2026-04-20 01:33 | 35.49057 | 119.79317 | 31246 ft | 528 kts | 31° |
| 2026-04-20 01:34 | 35.54752 | 119.85012 | 31266 ft | 531 kts | 31° |
| 2026-04-20 01:34 | 35.60540 | 119.90817 | 31258 ft | 532 kts | 32° |
| 2026-04-20 01:35 | 35.66361 | 119.96697 | 31258 ft | 537 kts | 32° |
| 2026-04-20 01:35 | 35.72153 | 120.02588 | 31250 ft | 534 kts | 31° |
| 2026-04-20 01:36 | 35.77921 | 120.08437 | 31243 ft | 533 kts | 31° |
| 2026-04-20 01:36 | 35.83714 | 120.14341 | 31244 ft | 536 kts | 32° |
| 2026-04-20 01:37 | 35.89523 | 120.20194 | 31252 ft | 538 kts | 32° |
| 2026-04-20 01:37 | 35.95300 | 120.26174 | 31239 ft | 539 kts | 33° |
| 2026-04-20 01:38 | 36.00657 | 120.32703 | 31238 ft | 546 kts | 41° |
| 2026-04-20 01:38 | 36.05794 | 120.39656 | 31253 ft | 548 kts | 41° |
| 2026-04-20 01:39 | 36.11097 | 120.46439 | 31201 ft | 537 kts | 29° |
| 2026-04-20 01:39 | 36.14207 | 120.48914 | 31207 ft | 522 kts | 17° |
| 2026-04-20 01:39 | 36.17503 | 120.50528 | 31227 ft | 502 kts | 4° |
| 2026-04-20 01:40 | 36.20875 | 120.51269 | 31233 ft | 482 kts | 351° |
| 2026-04-20 01:40 | 36.24179 | 120.51157 | 31262 ft | 471 kts | 342° |
| 2026-04-20 01:40 | 36.30806 | 120.50405 | 31283 ft | 481 kts | 343° |
| 2026-04-20 01:41 | 36.37563 | 120.49731 | 31228 ft | 491 kts | 348° |
| 2026-04-20 01:41 | 36.41011 | 120.50160 | 31225 ft | 509 kts | 0° |
| 2026-04-20 01:41 | 36.44449 | 120.51476 | 31217 ft | 528 kts | 12° |
| 2026-04-20 01:42 | 36.51082 | 120.55433 | 31226 ft | 524 kts | 12° |
| 2026-04-20 01:42 | 36.54479 | 120.56834 | 31194 ft | 505 kts | 0° |
| 2026-04-20 01:42 | 36.57894 | 120.57403 | 31223 ft | 486 kts | 352° |
| 2026-04-20 01:43 | 36.64729 | 120.58346 | 31256 ft | 496 kts | 355° |
| 2026-04-20 01:43 | 36.71668 | 120.59477 | 31257 ft | 500 kts | 355° |
| 2026-04-20 01:44 | 36.78650 | 120.60659 | 31240 ft | 500 kts | 355° |
| 2026-04-20 01:44 | 36.85596 | 120.61857 | 31226 ft | 497 kts | 355° |
| 2026-04-20 01:45 | 36.92474 | 120.63065 | 31249 ft | 496 kts | 355° |
| 2026-04-20 01:45 | 36.99429 | 120.64354 | 31242 ft | 498 kts | 355° |
| 2026-04-20 01:46 | 37.06342 | 120.65627 | 31208 ft | 498 kts | 355° |
| 2026-04-20 01:46 | 37.13259 | 120.66910 | 31231 ft | 500 kts | 355° |
| 2026-04-20 01:47 | 37.20110 | 120.68202 | 31235 ft | 498 kts | 355° |
| 2026-04-20 01:47 | 37.27032 | 120.69476 | 31249 ft | 501 kts | 355° |
| 2026-04-20 01:48 | 37.33937 | 120.70785 | 31231 ft | 501 kts | 355° |
| 2026-04-20 01:48 | 37.40939 | 120.72106 | 31231 ft | 503 kts | 355° |
| 2026-04-20 01:49 | 37.47888 | 120.73399 | 31227 ft | 498 kts | 355° |
| 2026-04-20 01:49 | 37.54784 | 120.74702 | 31240 ft | 501 kts | 355° |
| 2026-04-20 01:50 | 37.61768 | 120.75879 | 31225 ft | 492 kts | 351° |
| 2026-04-20 01:50 | 37.68647 | 120.76656 | 31244 ft | 497 kts | 351° |
| 2026-04-20 01:51 | 37.75604 | 120.77497 | 31240 ft | 496 kts | 351° |
| 2026-04-20 01:51 | 37.82526 | 120.78335 | 31240 ft | 492 kts | 351° |
| 2026-04-20 01:52 | 37.89473 | 120.79157 | 31253 ft | 496 kts | 351° |
| 2026-04-20 01:52 | 37.96360 | 120.79998 | 31240 ft | 494 kts | 351° |
| 2026-04-20 01:53 | 37.99824 | 120.80611 | 31231 ft | 510 kts | 359° |
| 2026-04-20 01:53 | 38.03258 | 120.82043 | 31230 ft | 535 kts | 11° |
| 2026-04-20 01:53 | 38.06614 | 120.84380 | 31249 ft | 550 kts | 21° |
| 2026-04-20 01:53 | 38.09837 | 120.86984 | 31270 ft | 547 kts | 19° |
| 2026-04-20 01:54 | 38.16324 | 120.91821 | 31252 ft | 538 kts | 18° |
| 2026-04-20 01:54 | 38.22659 | 120.97016 | 31224 ft | 556 kts | 30° |
| 2026-04-20 01:55 | 38.25422 | 121.00528 | 31235 ft | 573 kts | 43° |
| 2026-04-20 01:55 | 38.27712 | 121.04718 | 31251 ft | 587 kts | 55° |
| 2026-04-20 01:55 | 38.29444 | 121.09500 | 31240 ft | 594 kts | 66° |
| 2026-04-20 01:55 | 38.30803 | 121.14397 | 31282 ft | 591 kts | 65° |
| 2026-04-20 01:56 | 38.34034 | 121.24104 | 31249 ft | 588 kts | 62° |
| 2026-04-20 01:56 | 38.37351 | 121.33649 | 31242 ft | 586 kts | 61° |
| 2026-04-20 01:57 | 38.40574 | 121.43313 | 31237 ft | 587 kts | 64° |
| 2026-04-20 01:57 | 38.44056 | 121.52593 | 31240 ft | 581 kts | 56° |
| 2026-04-20 01:58 | 38.47860 | 121.61836 | 31233 ft | 585 kts | 58° |
| 2026-04-20 01:58 | 38.51574 | 121.71086 | 31195 ft | 581 kts | 59° |
| 2026-04-20 01:59 | 38.55257 | 121.80346 | 31220 ft | 582 kts | 59° |
| 2026-04-20 01:59 | 38.58918 | 121.89597 | 31210 ft | 581 kts | 59° |
| 2026-04-20 02:00 | 38.62618 | 121.98977 | 31206 ft | 581 kts | 59° |
| 2026-04-20 02:00 | 38.66317 | 122.08236 | 31221 ft | 580 kts | 59° |
| 2026-04-20 02:01 | 38.70596 | 122.16846 | 31161 ft | 567 kts | 40° |
| 2026-04-20 02:01 | 38.73472 | 122.20224 | 31184 ft | 551 kts | 27° |
| 2026-04-20 02:01 | 38.76666 | 122.22776 | 31197 ft | 535 kts | 16° |
| 2026-04-20 02:02 | 38.83297 | 122.27283 | 31213 ft | 540 kts | 19° |
| 2026-04-20 02:02 | 38.89811 | 122.32151 | 31199 ft | 539 kts | 21° |
| 2026-04-20 02:03 | 38.96268 | 122.37178 | 31189 ft | 538 kts | 21° |
| 2026-04-20 02:03 | 39.02723 | 122.42266 | 31180 ft | 540 kts | 22° |
| 2026-04-20 02:04 | 39.09212 | 122.47416 | 31165 ft | 543 kts | 22° |
| 2026-04-20 02:04 | 39.15643 | 122.52525 | 31162 ft | 541 kts | 21° |
| 2026-04-20 02:05 | 39.22038 | 122.57602 | 31155 ft | 542 kts | 23° |
| 2026-04-20 02:05 | 39.28390 | 122.62972 | 31135 ft | 540 kts | 20° |
| 2026-04-20 02:06 | 39.35001 | 122.67395 | 31144 ft | 538 kts | 20° |
| 2026-04-20 02:06 | 39.41592 | 122.72077 | 31156 ft | 537 kts | 20° |
| 2026-04-20 02:07 | 39.48148 | 122.76711 | 31154 ft | 541 kts | 20° |
| 2026-04-20 02:07 | 39.54737 | 122.81464 | 31136 ft | 538 kts | 20° |
| 2026-04-20 02:08 | 39.61395 | 122.86211 | 31139 ft | 541 kts | 21° |
| 2026-04-20 02:08 | 39.68031 | 122.91003 | 31137 ft | 539 kts | 20° |
| 2026-04-20 02:09 | 39.74668 | 122.95796 | 31136 ft | 537 kts | 20° |
| 2026-04-20 02:09 | 39.81295 | 123.00581 | 31126 ft | 539 kts | 21° |
| 2026-04-20 02:10 | 39.87879 | 123.05348 | 31136 ft | 538 kts | 21° |
| 2026-04-20 02:10 | 39.94453 | 123.10088 | 31133 ft | 538 kts | 20° |
| 2026-04-20 02:11 | 40.01026 | 123.14897 | 31110 ft | 539 kts | 22° |
| 2026-04-20 02:11 | 40.07526 | 123.19914 | 31083 ft | 536 kts | 19° |
| 2026-04-20 02:12 | 40.14151 | 123.24481 | 31073 ft | 536 kts | 20° |
| 2026-04-20 02:12 | 40.20710 | 123.29153 | 31094 ft | 536 kts | 21° |
| 2026-04-20 02:13 | 40.27251 | 123.33853 | 31087 ft | 538 kts | 20° |
| 2026-04-20 02:13 | 40.33800 | 123.38638 | 31080 ft | 536 kts | 21° |
| 2026-04-20 02:14 | 40.40345 | 123.43392 | 31086 ft | 535 kts | 21° |
| 2026-04-20 02:14 | 40.46835 | 123.48064 | 31079 ft | 536 kts | 21° |
| 2026-04-20 02:15 | 40.53425 | 123.52868 | 31084 ft | 537 kts | 23° |
| 2026-04-20 02:15 | 40.59919 | 123.57889 | 31060 ft | 538 kts | 22° |
| 2026-04-20 02:16 | 40.66524 | 123.62561 | 31063 ft | 535 kts | 22° |
| 2026-04-20 02:16 | 40.73043 | 123.67272 | 31045 ft | 537 kts | 22° |
| 2026-04-20 02:17 | 40.79601 | 123.72085 | 31044 ft | 538 kts | 22° |
| 2026-04-20 02:17 | 40.86077 | 123.77055 | 31040 ft | 536 kts | 20° |
| 2026-04-20 02:18 | 40.92695 | 123.81605 | 31080 ft | 535 kts | 22° |
| 2026-04-20 02:18 | 40.99332 | 123.86290 | 31078 ft | 539 kts | 22° |
| 2026-04-20 02:19 | 41.05903 | 123.91013 | 31058 ft | 535 kts | 21° |
| 2026-04-20 02:19 | 41.12491 | 123.95736 | 31060 ft | 533 kts | 22° |
| 2026-04-20 02:20 | 41.19032 | 124.00439 | 31026 ft | 537 kts | 21° |
| 2026-04-20 02:20 | 41.25589 | 124.05166 | 31019 ft | 536 kts | 22° |
| 2026-04-20 02:21 | 41.35440 | 124.12287 | 31004 ft | 530 kts | 23° |
| 2026-04-20 02:22 | 41.41926 | 124.17242 | 31006 ft | 534 kts | 24° |
| 2026-04-20 02:22 | 41.48516 | 124.22063 | 31019 ft | 535 kts | 23° |
| 2026-04-20 02:23 | 41.55090 | 124.26981 | 31017 ft | 535 kts | 24° |
| 2026-04-20 02:23 | 41.61615 | 124.31902 | 31019 ft | 535 kts | 24° |
| 2026-04-20 02:24 | 41.68173 | 124.36885 | 31012 ft | 534 kts | 23° |
| 2026-04-20 02:24 | 41.74679 | 124.41819 | 31011 ft | 534 kts | 23° |
| 2026-04-20 02:25 | 41.81115 | 124.46706 | 31009 ft | 533 kts | 23° |
| 2026-04-20 02:25 | 41.87585 | 124.51599 | 31023 ft | 534 kts | 23° |
| 2026-04-20 02:26 | 41.94026 | 124.56535 | 31042 ft | 533 kts | 24° |
| 2026-04-20 02:26 | 42.00523 | 124.61563 | 31007 ft | 533 kts | 19° |
| 2026-04-20 02:27 | 42.07201 | 124.65949 | 31029 ft | 528 kts | 21° |
| 2026-04-20 02:27 | 42.13780 | 124.70423 | 30998 ft | 529 kts | 20° |
| 2026-04-20 02:28 | 42.20310 | 124.74917 | 31002 ft | 531 kts | 21° |
| 2026-04-20 02:28 | 42.26934 | 124.79462 | 31010 ft | 532 kts | 21° |
| 2026-04-20 02:29 | 42.33489 | 124.83980 | 31003 ft | 531 kts | 21° |
| 2026-04-20 02:29 | 42.40110 | 124.88580 | 30988 ft | 533 kts | 21° |
| 2026-04-20 02:30 | 42.46709 | 124.93140 | 30966 ft | 532 kts | 21° |
| 2026-04-20 02:30 | 42.53315 | 124.97758 | 30981 ft | 533 kts | 21° |
| 2026-04-20 02:31 | 42.59911 | 125.02354 | 30958 ft | 533 kts | 22° |
| 2026-04-20 02:31 | 42.66562 | 125.06998 | 30971 ft | 534 kts | 22° |
| 2026-04-20 02:32 | 42.73256 | 125.11662 | 30943 ft | 533 kts | 21° |
| 2026-04-20 02:32 | 42.79909 | 125.16376 | 30957 ft | 536 kts | 23° |
| 2026-04-20 02:33 | 42.86526 | 125.21169 | 30960 ft | 532 kts | 19° |
| 2026-04-20 02:33 | 42.93262 | 125.25706 | 30947 ft | 534 kts | 21° |
| 2026-04-20 02:34 | 42.99959 | 125.30352 | 30953 ft | 534 kts | 21° |
| 2026-04-20 02:34 | 43.06737 | 125.35040 | 30915 ft | 535 kts | 22° |
| 2026-04-20 02:35 | 43.13415 | 125.39716 | 30904 ft | 536 kts | 21° |
| 2026-04-20 02:35 | 43.20077 | 125.44382 | 30890 ft | 537 kts | 22° |
| 2026-04-20 02:36 | 43.26722 | 125.49046 | 30896 ft | 537 kts | 22° |
| 2026-04-20 02:36 | 43.33358 | 125.53719 | 30888 ft | 536 kts | 22° |
| 2026-04-20 02:37 | 43.40033 | 125.58427 | 30885 ft | 537 kts | 22° |
| 2026-04-20 02:37 | 43.46522 | 125.63039 | 30748 ft | 516 kts | 22° |
| 2026-04-20 02:37 | 43.49712 | 125.65298 | 30475 ft | 509 kts | 23° |
| 2026-04-20 02:38 | 43.52866 | 125.67518 | 30104 ft | 505 kts | 22° |
| 2026-04-20 02:38 | 43.55958 | 125.69717 | 29727 ft | 501 kts | 23° |
| 2026-04-20 02:38 | 43.59031 | 125.71918 | 29340 ft | 498 kts | 22° |
| 2026-04-20 02:38 | 43.62131 | 125.74111 | 28955 ft | 497 kts | 22° |
| 2026-04-20 02:39 | 43.65207 | 125.76296 | 28592 ft | 496 kts | 22° |
| 2026-04-20 02:39 | 43.68277 | 125.78443 | 28224 ft | 495 kts | 22° |
| 2026-04-20 02:39 | 43.71341 | 125.80642 | 27857 ft | 494 kts | 24° |
| 2026-04-20 02:39 | 43.74385 | 125.82870 | 27485 ft | 491 kts | 24° |
| 2026-04-20 02:40 | 43.77446 | 125.84962 | 27074 ft | 484 kts | 15° |
| 2026-04-20 02:40 | 43.80648 | 125.86182 | 26666 ft | 471 kts | 1° |
| 2026-04-20 02:40 | 43.83917 | 125.86683 | 26318 ft | 463 kts | 358° |
| 2026-04-20 02:40 | 43.87120 | 125.87197 | 25964 ft | 463 kts | 0° |
| 2026-04-20 02:41 | 43.90308 | 125.87800 | 25593 ft | 463 kts | 1° |
| 2026-04-20 02:41 | 43.93486 | 125.88587 | 25199 ft | 469 kts | 10° |
| 2026-04-20 02:41 | 43.96575 | 125.90277 | 24812 ft | 476 kts | 25° |
| 2026-04-20 02:41 | 43.99291 | 125.92812 | 24437 ft | 476 kts | 39° |
| 2026-04-20 02:42 | 44.01790 | 125.95882 | 24111 ft | 475 kts | 41° |
| 2026-04-20 02:42 | 44.04248 | 125.98870 | 23775 ft | 472 kts | 40° |
| 2026-04-20 02:42 | 44.06851 | 126.01668 | 23388 ft | 468 kts | 29° |
| 2026-04-20 02:42 | 44.09721 | 126.03624 | 23011 ft | 458 kts | 14° |
| 2026-04-20 02:43 | 44.12802 | 126.04644 | 22599 ft | 445 kts | 0° |
| 2026-04-20 02:43 | 44.15835 | 126.05096 | 22254 ft | 440 kts | 360° |
| 2026-04-20 02:43 | 44.18865 | 126.05674 | 21919 ft | 437 kts | 2° |
| 2026-04-20 02:43 | 44.21850 | 126.06298 | 21547 ft | 431 kts | 2° |
| 2026-04-20 02:44 | 44.24811 | 126.06911 | 21176 ft | 428 kts | 2° |
| 2026-04-20 02:44 | 44.27746 | 126.07521 | 20850 ft | 424 kts | 2° |
| 2026-04-20 02:44 | 44.30649 | 126.08151 | 20484 ft | 417 kts | 3° |
| 2026-04-20 02:44 | 44.33479 | 126.08796 | 20090 ft | 407 kts | 4° |
| 2026-04-20 02:45 | 44.36246 | 126.09457 | 19695 ft | 402 kts | 4° |
| 2026-04-20 02:45 | 44.38972 | 126.10168 | 19327 ft | 399 kts | 5° |
| 2026-04-20 02:45 | 44.41710 | 126.10773 | 18979 ft | 393 kts | 1° |
| 2026-04-20 02:45 | 44.44404 | 126.11302 | 18619 ft | 390 kts | 3° |
| 2026-04-20 02:46 | 44.47039 | 126.11878 | 18263 ft | 387 kts | 3° |
| 2026-04-20 02:46 | 44.49688 | 126.12483 | 17902 ft | 385 kts | 5° |
| 2026-04-20 02:46 | 44.52312 | 126.13137 | 17541 ft | 382 kts | 3° |
| 2026-04-20 02:46 | 44.54940 | 126.13663 | 17190 ft | 379 kts | 2° |
| 2026-04-20 02:47 | 44.57550 | 126.14232 | 16834 ft | 378 kts | 4° |
| 2026-04-20 02:47 | 44.60130 | 126.14833 | 16481 ft | 375 kts | 4° |
| 2026-04-20 02:47 | 44.62680 | 126.15428 | 16131 ft | 371 kts | 3° |
| 2026-04-20 02:47 | 44.65229 | 126.15951 | 15771 ft | 368 kts | 4° |
| 2026-04-20 02:48 | 44.67750 | 126.16518 | 15414 ft | 366 kts | 4° |
| 2026-04-20 02:48 | 44.70245 | 126.17090 | 15067 ft | 363 kts | 4° |
| 2026-04-20 02:48 | 44.72725 | 126.17642 | 14690 ft | 358 kts | 360° |
| 2026-04-20 02:48 | 44.75167 | 126.17836 | 14331 ft | 353 kts | 356° |
| 2026-04-20 02:49 | 44.77619 | 126.18012 | 13985 ft | 352 kts | 358° |
| 2026-04-20 02:49 | 44.80048 | 126.18224 | 13642 ft | 349 kts | 357° |
| 2026-04-20 02:49 | 44.82461 | 126.18421 | 13294 ft | 346 kts | 358° |
| 2026-04-20 02:49 | 44.84838 | 126.18636 | 12930 ft | 342 kts | 358° |
| 2026-04-20 02:50 | 44.87207 | 126.18842 | 12582 ft | 340 kts | 358° |
| 2026-04-20 02:50 | 44.89587 | 126.19059 | 12233 ft | 338 kts | 358° |
| 2026-04-20 02:50 | 44.91923 | 126.19292 | 11879 ft | 336 kts | 358° |
| 2026-04-20 02:50 | 44.94241 | 126.19541 | 11524 ft | 333 kts | 358° |
| 2026-04-20 02:51 | 44.96530 | 126.19752 | 11164 ft | 330 kts | 357° |
| 2026-04-20 02:51 | 44.98783 | 126.19934 | 10813 ft | 324 kts | 358° |
| 2026-04-20 02:51 | 45.01002 | 126.20136 | 10432 ft | 317 kts | 358° |
| 2026-04-20 02:51 | 45.03182 | 126.20334 | 10047 ft | 311 kts | 358° |
| 2026-04-20 02:52 | 45.05304 | 126.20525 | 9789 ft | 300 kts | 358° |
| 2026-04-20 02:52 | 45.07373 | 126.20712 | 9749 ft | 293 kts | 357° |
| 2026-04-20 02:52 | 45.09410 | 126.20892 | 9756 ft | 295 kts | 358° |
| 2026-04-20 02:52 | 45.11443 | 126.21077 | 9774 ft | 296 kts | 358° |
| 2026-04-20 02:53 | 45.13530 | 126.21265 | 9776 ft | 298 kts | 358° |
| 2026-04-20 02:53 | 45.15596 | 126.21452 | 9784 ft | 299 kts | 358° |
| 2026-04-20 02:53 | 45.17671 | 126.21643 | 9788 ft | 300 kts | 358° |
| 2026-04-20 02:53 | 45.19738 | 126.21832 | 9777 ft | 300 kts | 358° |
| 2026-04-20 02:54 | 45.21831 | 126.22031 | 9649 ft | 299 kts | 358° |
| 2026-04-20 02:54 | 45.23891 | 126.22217 | 9419 ft | 292 kts | 358° |
| 2026-04-20 02:54 | 45.25911 | 126.22400 | 9183 ft | 290 kts | 358° |
| 2026-04-20 02:54 | 45.27901 | 126.22585 | 8972 ft | 289 kts | 358° |
| 2026-04-20 02:55 | 45.29909 | 126.22772 | 8768 ft | 288 kts | 358° |
| 2026-04-20 02:55 | 45.31910 | 126.22953 | 8560 ft | 286 kts | 358° |
| 2026-04-20 02:55 | 45.33873 | 126.23132 | 8357 ft | 285 kts | 358° |
| 2026-04-20 02:55 | 45.35865 | 126.23309 | 8144 ft | 284 kts | 358° |
| 2026-04-20 02:56 | 45.37811 | 126.23490 | 7941 ft | 283 kts | 358° |
| 2026-04-20 02:56 | 45.39783 | 126.23681 | 7727 ft | 283 kts | 359° |
| 2026-04-20 02:56 | 45.41752 | 126.23867 | 7517 ft | 282 kts | 359° |
| 2026-04-20 02:56 | 45.43710 | 126.24062 | 7306 ft | 282 kts | 359° |
| 2026-04-20 02:57 | 45.45661 | 126.24347 | 7077 ft | 284 kts | 9° |
| 2026-04-20 02:57 | 45.47492 | 126.25405 | 6849 ft | 289 kts | 31° |
| 2026-04-20 02:57 | 45.49073 | 126.27193 | 6655 ft | 290 kts | 39° |
| 2026-04-20 02:57 | 45.50602 | 126.29057 | 6467 ft | 289 kts | 37° |
| 2026-04-20 02:58 | 45.52142 | 126.30853 | 6265 ft | 289 kts | 38° |
| 2026-04-20 02:58 | 45.53696 | 126.32684 | 6054 ft | 287 kts | 38° |
| 2026-04-20 02:58 | 45.55235 | 126.34501 | 5845 ft | 286 kts | 38° |
| 2026-04-20 02:58 | 45.56757 | 126.36329 | 5634 ft | 286 kts | 38° |
| 2026-04-20 02:59 | 45.58281 | 126.38117 | 5429 ft | 285 kts | 37° |
| 2026-04-20 02:59 | 45.59820 | 126.39899 | 5225 ft | 284 kts | 37° |
| 2026-04-20 02:59 | 45.61349 | 126.41692 | 5018 ft | 283 kts | 37° |
| 2026-04-20 02:59 | 45.62858 | 126.43459 | 4814 ft | 283 kts | 37° |
| 2026-04-20 03:00 | 45.64382 | 126.45247 | 4606 ft | 282 kts | 37° |
| 2026-04-20 03:00 | 45.65892 | 126.47021 | 4407 ft | 281 kts | 38° |
| 2026-04-20 03:00 | 45.67388 | 126.48791 | 4200 ft | 280 kts | 38° |
| 2026-04-20 03:00 | 45.68883 | 126.50571 | 4030 ft | 280 kts | 38° |
| 2026-04-20 03:01 | 45.70355 | 126.52335 | 3947 ft | 278 kts | 38° |
| 2026-04-20 03:01 | 45.71843 | 126.54101 | 3868 ft | 273 kts | 37° |
| 2026-04-20 03:01 | 45.73271 | 126.55771 | 3806 ft | 262 kts | 37° |
| 2026-04-20 03:01 | 45.74686 | 126.57439 | 3799 ft | 260 kts | 37° |
| 2026-04-20 03:02 | 45.76077 | 126.59083 | 3814 ft | 261 kts | 37° |
| 2026-04-20 03:02 | 45.77537 | 126.60616 | 3800 ft | 261 kts | 22° |
| 2026-04-20 03:02 | 45.79232 | 126.61370 | 3689 ft | 255 kts | 359° |
| 2026-04-20 03:02 | 45.80957 | 126.61155 | 3555 ft | 246 kts | 335° |
| 2026-04-20 03:03 | 45.82412 | 126.60037 | 3424 ft | 234 kts | 311° |
| 2026-04-20 03:03 | 45.83376 | 126.58223 | 3304 ft | 223 kts | 287° |
| 2026-04-20 03:03 | 45.83859 | 126.56165 | 3203 ft | 219 kts | 281° |
| 2026-04-20 03:03 | 45.84282 | 126.54143 | 3198 ft | 202 kts | 277° |
| 2026-04-20 03:04 | 45.84276 | 126.52219 | 2984 ft | 191 kts | 250° |
| 2026-04-20 03:04 | 45.83622 | 126.50620 | 2845 ft | 186 kts | 225° |
| 2026-04-20 03:04 | 45.82646 | 126.49433 | 2747 ft | 185 kts | 221° |
| 2026-04-20 03:04 | 45.81672 | 126.48201 | 2640 ft | 184 kts | 226° |
| 2026-04-20 03:05 | 45.80766 | 126.46930 | 2540 ft | 185 kts | 224° |
| 2026-04-20 03:05 | 45.79804 | 126.45699 | 2449 ft | 185 kts | 223° |
| 2026-04-20 03:05 | 45.78836 | 126.44495 | 2335 ft | 184 kts | 222° |
| 2026-04-20 03:05 | 45.77851 | 126.43295 | 2221 ft | 184 kts | 222° |
| 2026-04-20 03:06 | 45.76889 | 126.42138 | 2142 ft | 178 kts | 222° |
| 2026-04-20 03:06 | 45.75957 | 126.41039 | 2079 ft | 168 kts | 223° |
| 2026-04-20 03:06 | 45.75066 | 126.39981 | 1965 ft | 163 kts | 222° |
| 2026-04-20 03:06 | 45.74204 | 126.38958 | 1920 ft | 161 kts | 222° |
| 2026-04-20 03:07 | 45.73332 | 126.37927 | 1916 ft | 161 kts | 222° |
| 2026-04-20 03:07 | 45.72468 | 126.36903 | 1938 ft | 162 kts | 222° |
| 2026-04-20 03:07 | 45.71596 | 126.35880 | 1947 ft | 164 kts | 221° |
| 2026-04-20 03:07 | 45.70716 | 126.34847 | 1964 ft | 164 kts | 222° |
| 2026-04-20 03:08 | 45.69844 | 126.33815 | 1998 ft | 158 kts | 222° |
| 2026-04-20 03:08 | 45.69020 | 126.32851 | 2151 ft | 150 kts | 222° |
| 2026-04-20 03:08 | 45.68218 | 126.31905 | 2003 ft | 150 kts | 222° |
| 2026-04-20 03:08 | 45.67411 | 126.30959 | 1728 ft | 146 kts | 222° |
| 2026-04-20 03:09 | 45.66642 | 126.30061 | 1467 ft | 143 kts | 223° |
| 2026-04-20 03:09 | 45.65863 | 126.29153 | 1208 ft | 145 kts | 221° |
| 2026-04-20 03:09 | 45.65081 | 126.28253 | 993 ft | 145 kts | 221° |
| 2026-04-20 03:09 | 45.64288 | 126.27340 | 768 ft | 146 kts | 222° |
| 2026-04-20 03:10 | 45.63506 | 126.26394 | 557 ft | 147 kts | 221° |
| 2026-04-20 03:10 | 45.62772 | 126.25523 | 515 ft | 114 kts | 220° |
| 2026-04-20 03:10 | 45.62332 | 126.25010 | 515 ft | 48 kts | 219° |
| 2026-04-20 03:10 | 45.62154 | 126.24798 | 515 ft | 11 kts | 220° |
| 2026-04-20 03:11 | 45.62097 | 126.24730 | 515 ft | 10 kts | 222° |
| 2026-04-20 03:11 | 45.62053 | 126.24653 | 515 ft | 9 kts | 234° |
| 2026-04-20 03:11 | 45.62017 | 126.24573 | 515 ft | 9 kts | 240° |
| 2026-04-20 03:11 | 45.61988 | 126.24492 | 514 ft | 9 kts | 246° |
| 2026-04-20 03:12 | 45.61964 | 126.24410 | 515 ft | 8 kts | 246° |
| 2026-04-20 03:12 | 45.61962 | 126.24335 | 514 ft | 7 kts | 309° |
| 2026-04-20 03:12 | 45.62006 | 126.24323 | 515 ft | 7 kts | 22° |
| 2026-04-20 03:12 | 45.62051 | 126.24367 | 515 ft | 8 kts | 38° |
| 2026-04-20 03:13 | 45.62096 | 126.24419 | 515 ft | 8 kts | 39° |
| 2026-04-20 03:13 | 45.62145 | 126.24477 | 514 ft | 9 kts | 39° |
| 2026-04-20 03:13 | 45.62199 | 126.24539 | 515 ft | 10 kts | 39° |
| 2026-04-20 03:13 | 45.62256 | 126.24606 | 514 ft | 11 kts | 39° |
| 2026-04-20 03:14 | 45.62318 | 126.24679 | 514 ft | 11 kts | 39° |
| 2026-04-20 03:14 | 45.62382 | 126.24754 | 514 ft | 12 kts | 39° |
| 2026-04-20 03:14 | 45.62452 | 126.24835 | 515 ft | 13 kts | 39° |
| 2026-04-20 03:14 | 45.62523 | 126.24919 | 515 ft | 13 kts | 39° |
| 2026-04-20 03:15 | 45.62598 | 126.25007 | 515 ft | 14 kts | 39° |
| 2026-04-20 03:15 | 45.62677 | 126.25100 | 515 ft | 14 kts | 39° |
| 2026-04-20 03:15 | 45.62758 | 126.25195 | 515 ft | 15 kts | 39° |
| 2026-04-20 03:15 | 45.62843 | 126.25294 | 514 ft | 15 kts | 39° |
| 2026-04-20 03:16 | 45.62929 | 126.25395 | 515 ft | 16 kts | 39° |
| 2026-04-20 03:16 | 45.63019 | 126.25500 | 515 ft | 16 kts | 39° |
| 2026-04-20 03:16 | 45.63112 | 126.25609 | 515 ft | 17 kts | 39° |
| 2026-04-20 03:16 | 45.63205 | 126.25719 | 515 ft | 17 kts | 39° |
| 2026-04-20 03:17 | 45.63262 | 126.25784 | 515 ft | 8 kts | 25° |
| 2026-04-20 03:17 | 45.63318 | 126.25768 | 515 ft | 8 kts | 315° |
| 2026-04-20 03:17 | 45.63356 | 126.25700 | 515 ft | 8 kts | 309° |
| 2026-04-20 03:17 | 45.63393 | 126.25637 | 515 ft | 8 kts | 308° |
| 2026-04-20 03:18 | 45.63429 | 126.25584 | 515 ft | 6 kts | 340° |
| 2026-04-20 03:18 | 45.63469 | 126.25605 | 515 ft | 6 kts | 61° |
| 2026-04-20 03:18 | 45.63469 | 126.25667 | 515 ft | 4 kts | 116° |
| 2026-04-20 03:18 | 45.63451 | 126.25703 | 515 ft | 3 kts | 127° |
| 2026-04-20 03:19 | 45.63446 | 126.25711 | 515 ft | 0 kts | 129° |